createdAt,value
2022-11-05T00:00:33.785Z,23.67
2022-11-05T00:02:53.994Z,24.00
2022-11-05T00:05:14.084Z,23.67
2022-11-05T00:07:37.066Z,23.30
2022-11-05T00:09:39.329Z,26.50
2022-11-05T00:11:59.409Z,23.95
2022-11-05T00:14:19.547Z,22.73
2022-11-05T00:16:39.464Z,24.05
2022-11-05T00:18:41.080Z,24.52
2022-11-05T00:20:42.686Z,27.45
2022-11-05T00:23:02.957Z,26.20
2022-11-05T00:25:17.011Z,23.83
2022-11-05T00:27:18.656Z,24.05
2022-11-05T00:29:20.288Z,22.55
2022-11-05T00:31:21.844Z,23.65
2022-11-05T00:33:23.388Z,22.27
2022-11-05T00:35:25.175Z,24.02
2022-11-05T00:37:30.187Z,23.77
2022-11-05T00:39:31.794Z,25.75
2022-11-05T00:41:33.440Z,23.17
2022-11-05T00:43:53.753Z,24.13
2022-11-05T00:45:55.489Z,22.65
2022-11-05T00:48:15.864Z,23.23
2022-11-05T00:50:21.704Z,23.00
2022-11-05T00:52:41.982Z,24.30
2022-11-05T00:54:43.904Z,22.98
2022-11-05T00:56:45.533Z,23.52
2022-11-05T00:58:47.146Z,24.48
2022-11-05T01:00:50.778Z,22.52
2022-11-05T01:02:52.561Z,24.33
2022-11-05T01:04:54.256Z,24.92
2022-11-05T01:06:55.904Z,24.05
2022-11-05T01:08:57.512Z,24.25
2022-11-05T01:10:59.436Z,24.75
2022-11-05T01:13:01.135Z,23.63
2022-11-05T01:15:02.910Z,23.63
2022-11-05T01:17:04.542Z,24.67
2022-11-05T01:19:08.626Z,23.15
2022-11-05T01:21:14.581Z,25.33
2022-11-05T01:23:16.657Z,23.98
2022-11-05T01:25:18.627Z,24.67
2022-11-05T01:27:20.292Z,24.13
2022-11-05T01:29:21.900Z,24.63
2022-11-05T01:31:24.189Z,24.63
2022-11-05T01:33:25.792Z,23.33
2022-11-05T01:35:27.408Z,24.95
2022-11-05T01:37:29.126Z,24.38
2022-11-05T01:39:30.733Z,23.58
2022-11-05T01:41:32.383Z,24.92
2022-11-05T01:43:46.018Z,23.65
2022-11-05T01:45:50.315Z,24.20
2022-11-05T01:48:03.273Z,23.05
2022-11-05T01:50:31.135Z,24.40
2022-11-05T01:52:34.124Z,24.65
2022-11-05T01:54:36.075Z,25.40
2022-11-05T01:56:44.311Z,23.90
2022-11-05T01:59:02.817Z,22.90
2022-11-05T02:01:04.455Z,24.45
2022-11-05T02:03:06.414Z,23.83
2022-11-05T02:05:08.358Z,23.73
2022-11-05T02:07:11.196Z,23.83
2022-11-05T02:09:18.236Z,25.83
2022-11-05T02:11:20.050Z,23.83
2022-11-05T02:13:21.675Z,24.67
2022-11-05T02:15:39.103Z,24.95
2022-11-05T02:18:01.016Z,23.77
2022-11-05T02:20:24.026Z,24.88
2022-11-05T02:23:10.922Z,24.23
2022-11-05T02:25:29.206Z,23.52
2022-11-05T02:28:15.522Z,24.92
2022-11-05T02:30:35.845Z,24.45
2022-11-05T02:32:55.516Z,24.38
2022-11-05T02:35:18.545Z,24.73
2022-11-05T02:37:46.376Z,24.38
2022-11-05T02:40:09.188Z,24.90
2022-11-05T02:42:55.259Z,23.90
2022-11-05T02:45:08.605Z,23.58
2022-11-05T02:47:14.070Z,23.47
2022-11-05T02:49:24.222Z,24.35
2022-11-05T02:51:35.309Z,25.10
2022-11-05T02:53:50.069Z,23.63
2022-11-05T02:55:55.805Z,24.67
2022-11-05T02:57:59.863Z,24.92
2022-11-05T03:00:04.304Z,23.50
2022-11-05T03:02:06.174Z,23.88
2022-11-05T03:04:11.513Z,24.27
2022-11-05T03:06:37.946Z,24.15
2022-11-05T03:09:21.230Z,24.65
2022-11-05T03:11:24.725Z,23.38
2022-11-05T03:13:35.607Z,23.83
2022-11-05T03:16:00.359Z,23.88
2022-11-05T03:18:29.490Z,23.40
2022-11-05T03:20:47.917Z,24.50
2022-11-05T03:23:30.757Z,24.17
2022-11-05T03:25:33.415Z,23.45
2022-11-05T03:27:38.921Z,23.90
2022-11-05T03:29:47.733Z,24.70
2022-11-05T03:31:50.707Z,24.38
2022-11-05T03:33:53.468Z,24.37
2022-11-05T03:36:00.060Z,23.83
2022-11-05T03:38:07.347Z,23.35
2022-11-05T03:40:10.310Z,23.98
2022-11-05T03:42:14.579Z,23.63
2022-11-05T03:44:25.206Z,25.00
2022-11-05T03:46:31.411Z,24.23
2022-11-05T03:48:36.601Z,24.63
2022-11-05T03:50:46.724Z,23.27
2022-11-05T03:53:01.087Z,23.38
2022-11-05T03:55:02.786Z,23.08
2022-11-05T03:57:17.287Z,23.23
2022-11-05T03:59:20.240Z,22.75
2022-11-05T04:01:21.973Z,24.17
2022-11-05T04:03:23.625Z,22.65
2022-11-05T04:05:25.241Z,23.45
2022-11-05T04:07:45.440Z,23.02
2022-11-05T04:10:05.305Z,22.33
2022-11-05T04:12:25.643Z,23.17
2022-11-05T04:14:27.382Z,23.40
2022-11-05T04:16:47.443Z,23.08
2022-11-05T04:18:49.057Z,23.73
2022-11-05T04:21:09.198Z,22.98
2022-11-05T04:23:29.784Z,24.13
2022-11-05T04:25:31.450Z,22.30
2022-11-05T04:27:33.231Z,24.00
2022-11-05T04:29:53.233Z,24.73
2022-11-05T04:31:55.015Z,23.63
2022-11-05T04:33:56.753Z,24.33
2022-11-05T04:36:00.321Z,23.23
2022-11-05T04:38:02.900Z,22.75
2022-11-05T04:40:04.938Z,23.08
2022-11-05T04:42:06.512Z,22.05
2022-11-05T04:44:08.150Z,21.63
2022-11-05T04:46:10.330Z,22.55
2022-11-05T04:48:12.184Z,23.52
2022-11-05T04:50:13.888Z,22.52
2022-11-05T04:52:15.657Z,21.42
2022-11-05T04:54:17.844Z,22.77
2022-11-05T04:56:23.815Z,22.05
2022-11-05T04:58:25.627Z,23.02
2022-11-05T05:00:27.396Z,22.95
2022-11-05T05:02:29.224Z,21.95
2022-11-05T05:04:30.887Z,23.05
2022-11-05T05:06:32.468Z,22.75
2022-11-05T05:08:34.132Z,23.55
2022-11-05T05:10:36.021Z,22.08
2022-11-05T05:12:37.697Z,22.92
2022-11-05T05:14:39.337Z,20.73
2022-11-05T05:16:41.013Z,21.00
2022-11-05T05:18:46.214Z,21.40
2022-11-05T05:21:06.490Z,22.15
2022-11-05T05:23:08.583Z,21.15
2022-11-05T05:25:10.412Z,22.45
2022-11-05T05:27:12.049Z,23.30
2022-11-05T05:29:14.118Z,22.67
2022-11-05T05:31:15.856Z,21.52
2022-11-05T05:33:17.463Z,20.42
2022-11-05T05:35:19.145Z,23.50
2022-11-05T05:37:20.848Z,21.85
2022-11-05T05:39:22.456Z,22.77
2022-11-05T05:41:24.230Z,21.60
2022-11-05T05:43:34.751Z,24.42
2022-11-05T05:45:36.540Z,27.27
2022-11-05T05:47:38.145Z,42.15
2022-11-05T05:49:40.133Z,43.45
2022-11-05T05:51:41.863Z,28.92
2022-11-05T05:53:44.954Z,26.15
2022-11-05T05:55:46.661Z,25.23
2022-11-05T05:57:48.277Z,24.48
2022-11-05T05:59:49.883Z,25.55
2022-11-05T06:01:51.698Z,34.25
2022-11-05T06:03:53.447Z,39.90
2022-11-05T06:06:00.383Z,36.00
2022-11-05T06:08:02.056Z,30.02
2022-11-05T06:10:04.978Z,27.65
2022-11-05T06:12:06.754Z,29.40
2022-11-05T06:14:12.470Z,27.70
2022-11-05T06:16:14.047Z,24.38
2022-11-05T06:18:15.635Z,25.88
2022-11-05T06:20:17.335Z,24.83
2022-11-05T06:22:18.900Z,25.85
2022-11-05T06:24:20.499Z,25.48
2022-11-05T06:26:22.206Z,25.88
2022-11-05T06:28:23.771Z,24.50
2022-11-05T06:30:25.380Z,24.63
2022-11-05T06:32:27.131Z,25.40
2022-11-05T06:34:29.172Z,25.40
2022-11-05T06:36:30.800Z,25.13
2022-11-05T06:38:34.242Z,26.48
2022-11-05T06:40:35.878Z,24.77
2022-11-05T06:42:37.459Z,25.48
2022-11-05T06:44:39.128Z,23.13
2022-11-05T06:46:44.458Z,24.05
2022-11-05T06:48:51.034Z,24.13
2022-11-05T06:50:52.957Z,23.90
2022-11-05T06:52:56.267Z,24.45
2022-11-05T06:54:57.938Z,24.13
2022-11-05T06:57:00.001Z,22.98
2022-11-05T06:59:01.809Z,23.63
2022-11-05T07:01:08.771Z,22.35
2022-11-05T07:03:11.928Z,22.10
2022-11-05T07:05:15.180Z,22.55
2022-11-05T07:07:16.744Z,23.80
2022-11-05T07:09:19.166Z,21.65
2022-11-05T07:11:20.858Z,22.10
2022-11-05T07:13:22.464Z,22.77
2022-11-05T07:15:24.038Z,20.50
2022-11-05T07:17:25.869Z,22.45
2022-11-05T07:19:27.459Z,20.98
2022-11-05T07:21:29.322Z,20.75
2022-11-05T07:23:31.001Z,21.15
2022-11-05T07:25:33.284Z,21.10
2022-11-05T07:27:40.999Z,20.58
2022-11-05T07:29:42.650Z,20.42
2022-11-05T07:31:44.288Z,20.05
2022-11-05T07:33:45.891Z,20.52
2022-11-05T07:35:47.541Z,18.85
2022-11-05T07:37:50.852Z,20.73
2022-11-05T07:39:52.443Z,20.35
2022-11-05T07:41:58.082Z,19.40
2022-11-05T07:43:59.713Z,19.38
2022-11-05T07:46:01.332Z,18.92
2022-11-05T07:48:04.324Z,19.95
2022-11-05T07:50:08.097Z,20.55
2022-11-05T07:54:11.290Z,19.88
2022-11-05T07:56:13.036Z,17.98
2022-11-05T07:58:14.651Z,20.00
2022-11-05T08:00:20.366Z,19.52
2022-11-05T08:02:22.139Z,18.58
2022-11-05T08:04:24.042Z,17.88
2022-11-05T08:06:25.741Z,19.45
2022-11-05T08:08:27.470Z,19.15
2022-11-05T08:10:29.194Z,17.35
2022-11-05T08:12:31.967Z,18.58
2022-11-05T08:14:33.669Z,19.58
2022-11-05T08:16:35.323Z,18.40
2022-11-05T08:18:37.000Z,18.23
2022-11-05T08:20:38.977Z,19.50
2022-11-05T08:22:44.550Z,19.30
2022-11-05T08:24:46.163Z,20.08
2022-11-05T08:26:47.767Z,20.92
2022-11-05T08:28:49.321Z,19.45
2022-11-05T08:30:56.217Z,22.00
2022-11-05T08:32:59.186Z,20.85
2022-11-05T08:35:00.782Z,20.58
2022-11-05T08:37:02.440Z,21.45
2022-11-05T08:39:04.350Z,21.50
2022-11-05T08:41:06.292Z,21.73
2022-11-05T08:43:10.795Z,21.33
2022-11-05T08:45:12.535Z,20.60
2022-11-05T08:47:14.147Z,19.63
2022-11-05T08:49:15.752Z,18.70
2022-11-05T08:51:17.332Z,19.27
2022-11-05T08:53:19.049Z,18.92
2022-11-05T08:55:20.661Z,19.50
2022-11-05T08:57:22.265Z,25.92
2022-11-05T08:59:23.988Z,18.55
2022-11-05T09:01:25.668Z,20.73
2022-11-05T09:03:27.374Z,20.00
2022-11-05T09:05:30.135Z,19.13
2022-11-05T09:07:31.745Z,22.52
2022-11-05T09:09:33.421Z,18.77
2022-11-05T09:12:05.404Z,18.15
2022-11-05T09:13:56.601Z,16.58
2022-11-05T09:15:58.976Z,16.83
2022-11-05T09:18:00.639Z,16.45
2022-11-05T09:20:04.006Z,16.50
2022-11-05T09:22:05.690Z,17.25
2022-11-05T09:24:07.613Z,16.92
2022-11-05T09:26:10.235Z,16.85
2022-11-05T09:28:20.415Z,16.55
2022-11-05T09:30:22.110Z,15.75
2022-11-05T09:32:23.793Z,15.07
2022-11-05T09:34:25.395Z,13.43
2022-11-05T09:36:27.202Z,19.58
2022-11-05T09:38:28.919Z,19.83
2022-11-05T09:40:32.532Z,15.55
2022-11-05T09:42:42.353Z,14.85
2022-11-05T09:44:51.175Z,15.13
2022-11-05T09:46:59.723Z,14.35
2022-11-05T09:49:07.775Z,15.95
2022-11-05T09:51:11.572Z,14.88
2022-11-05T09:53:16.254Z,15.85
2022-11-05T09:55:32.204Z,14.98
2022-11-05T09:57:46.539Z,14.73
2022-11-05T09:59:53.257Z,17.38
2022-11-05T10:02:02.967Z,14.70
2022-11-05T10:04:18.422Z,13.27
2022-11-05T10:06:22.504Z,15.10
2022-11-05T10:08:28.956Z,14.07
2022-11-05T10:10:30.547Z,13.70
2022-11-05T10:12:36.623Z,13.90
2022-11-05T10:14:42.787Z,15.10
2022-11-05T10:16:49.148Z,15.15
2022-11-05T10:18:59.223Z,14.27
2022-11-05T10:21:01.166Z,13.52
2022-11-05T10:23:10.374Z,13.45
2022-11-05T10:25:21.207Z,13.10
2022-11-05T10:27:27.791Z,13.48
2022-11-05T10:29:32.691Z,13.38
2022-11-05T10:31:36.343Z,14.15
2022-11-05T10:35:50.573Z,12.68
2022-11-05T10:37:53.681Z,12.30
2022-11-05T10:39:55.629Z,12.95
2022-11-05T10:42:34.281Z,11.63
2022-11-05T10:44:40.328Z,12.55
2022-11-05T10:47:08.909Z,12.00
2022-11-05T10:49:19.707Z,11.75
2022-11-05T10:51:21.387Z,11.93
2022-11-05T10:53:27.823Z,12.40
2022-11-05T10:55:32.780Z,13.75
2022-11-05T10:57:39.634Z,12.15
2022-11-05T10:59:41.553Z,12.70
2022-11-05T11:01:43.831Z,12.27
2022-11-05T11:03:51.302Z,13.45
2022-11-05T11:05:59.888Z,14.07
2022-11-05T11:08:10.568Z,12.50
2022-11-05T11:10:22.584Z,13.02
2022-11-05T11:12:27.539Z,13.70
2022-11-05T11:14:29.437Z,12.77
2022-11-05T11:16:38.694Z,12.93
2022-11-05T11:18:43.119Z,13.18
2022-11-05T11:20:46.625Z,13.00
2022-11-05T11:23:15.090Z,13.77
2022-11-05T11:25:29.483Z,13.43
2022-11-05T11:27:33.750Z,11.77
2022-11-05T11:29:42.884Z,12.55
2022-11-05T11:31:48.083Z,12.55
2022-11-05T11:33:53.342Z,12.43
2022-11-05T11:35:55.334Z,10.95
2022-11-05T11:37:57.864Z,12.30
2022-11-05T11:40:05.896Z,11.52
2022-11-05T11:42:14.258Z,11.35
2022-11-05T11:44:20.178Z,12.05
2022-11-05T11:46:21.924Z,12.57
2022-11-05T11:48:29.591Z,11.70
2022-11-05T11:50:38.798Z,12.23
2022-11-05T11:52:40.771Z,13.55
2022-11-05T11:54:42.655Z,11.18
2022-11-05T11:56:46.681Z,11.50
2022-11-05T11:58:52.101Z,11.77
2022-11-05T12:01:09.317Z,12.73
2022-11-05T12:03:11.246Z,11.43
2022-11-05T12:05:31.465Z,11.35
2022-11-05T12:07:52.904Z,12.43
2022-11-05T12:10:04.315Z,12.75
2022-11-05T12:12:11.155Z,13.10
2022-11-05T12:14:25.016Z,13.68
2022-11-05T12:16:35.415Z,12.52
2022-11-05T12:18:54.537Z,11.82
2022-11-05T12:21:01.924Z,11.27
2022-11-05T12:23:44.068Z,11.07
2022-11-05T12:26:03.411Z,19.88
2022-11-05T12:28:19.642Z,12.43
2022-11-05T12:30:22.082Z,12.68
2022-11-05T12:32:59.207Z,12.50
2022-11-05T12:35:09.891Z,11.20
2022-11-05T12:37:26.625Z,12.02
2022-11-05T12:39:53.164Z,12.98
2022-11-05T12:42:02.355Z,11.93
2022-11-05T12:44:16.057Z,11.50
2022-11-05T12:46:40.506Z,12.32
2022-11-05T12:50:51.385Z,11.77
2022-11-05T12:53:11.962Z,11.18
2022-11-05T12:55:20.398Z,11.13
2022-11-05T12:57:22.892Z,11.18
2022-11-05T12:59:27.564Z,11.73
2022-11-05T13:01:37.611Z,11.20
2022-11-05T13:03:43.852Z,10.43
2022-11-05T13:05:50.005Z,10.25
2022-11-05T13:07:58.393Z,11.13
2022-11-05T13:10:23.720Z,12.05
2022-11-05T13:12:27.673Z,11.38
2022-11-05T13:14:36.352Z,10.38
2022-11-05T13:16:41.881Z,10.85
2022-11-05T13:18:48.443Z,10.82
2022-11-05T13:20:51.575Z,11.70
2022-11-05T13:23:00.876Z,11.50
2022-11-05T13:25:11.014Z,11.80
2022-11-05T13:27:21.441Z,11.27
2022-11-05T13:29:32.147Z,11.85
2022-11-05T13:31:39.971Z,12.65
2022-11-05T13:33:44.063Z,12.05
2022-11-05T13:36:13.072Z,12.02
2022-11-05T13:38:44.131Z,11.45
2022-11-05T13:41:23.093Z,11.68
2022-11-05T13:43:52.635Z,11.85
2022-11-05T13:46:22.645Z,11.50
2022-11-05T13:48:44.780Z,12.05
2022-11-05T13:51:14.109Z,12.55
2022-11-05T13:53:30.996Z,12.13
2022-11-05T13:55:54.263Z,12.93
2022-11-05T13:59:03.691Z,11.65
2022-11-05T14:01:34.630Z,12.45
2022-11-05T14:03:37.252Z,12.43
2022-11-05T14:05:41.462Z,30.23
2022-11-05T14:07:47.285Z,17.20
2022-11-05T14:09:59.898Z,12.65
2022-11-05T14:12:01.969Z,11.70
2022-11-05T14:14:06.025Z,11.50
2022-11-05T14:16:20.858Z,11.93
2022-11-05T14:18:25.619Z,12.48
2022-11-05T14:20:32.976Z,12.40
2022-11-05T14:22:38.362Z,12.00
2022-11-05T14:24:43.452Z,12.75
2022-11-05T14:26:45.324Z,12.52
2022-11-05T14:28:51.578Z,13.65
2022-11-05T14:30:53.553Z,13.10
2022-11-05T14:33:03.551Z,12.93
2022-11-05T14:35:17.464Z,14.80
2022-11-05T14:37:23.826Z,14.48
2022-11-05T14:39:28.529Z,14.63
2022-11-05T14:41:30.181Z,15.35
2022-11-05T14:43:33.109Z,14.70
2022-11-05T14:45:37.542Z,14.48
2022-11-05T14:47:42.256Z,14.35
2022-11-05T14:49:53.593Z,14.52
2022-11-05T14:51:59.979Z,14.68
2022-11-05T14:54:22.821Z,15.45
2022-11-05T14:56:24.431Z,15.48
2022-11-05T14:58:31.934Z,15.07
2022-11-05T15:00:36.531Z,13.65
2022-11-05T15:02:38.555Z,15.10
2022-11-05T15:04:45.587Z,14.75
2022-11-05T15:07:22.441Z,14.27
2022-11-05T15:09:35.372Z,14.38
2022-11-05T15:11:45.950Z,13.68
2022-11-05T15:13:53.519Z,14.23
2022-11-05T15:15:55.190Z,14.43
2022-11-05T15:18:30.513Z,14.10
2022-11-05T15:20:49.065Z,13.82
2022-11-05T15:22:59.715Z,14.82
2022-11-05T15:25:01.563Z,17.02
2022-11-05T15:27:25.014Z,15.10
2022-11-05T15:29:28.902Z,15.18
2022-11-05T15:31:41.116Z,15.00
2022-11-05T15:33:44.819Z,14.73
2022-11-05T15:37:54.605Z,15.90
2022-11-05T15:39:59.089Z,16.50
2022-11-05T15:42:04.880Z,17.05
2022-11-05T15:44:06.546Z,17.95
2022-11-05T15:46:15.515Z,18.45
2022-11-05T15:48:19.591Z,16.70
2022-11-05T15:50:21.304Z,17.30
2022-11-05T15:52:36.391Z,16.88
2022-11-05T15:54:38.337Z,17.60
2022-11-05T15:56:48.223Z,18.30
2022-11-05T15:58:54.859Z,16.65
2022-11-05T16:00:56.616Z,16.92
2022-11-05T16:03:04.485Z,16.50
2022-11-05T16:05:12.666Z,15.40
2022-11-05T16:07:14.613Z,16.27
2022-11-05T16:09:31.048Z,14.50
2022-11-05T16:11:32.648Z,15.38
2022-11-05T16:13:35.841Z,15.77
2022-11-05T16:15:37.714Z,16.45
2022-11-05T16:17:57.559Z,17.00
2022-11-05T16:19:59.353Z,15.98
2022-11-05T16:22:05.658Z,16.08
2022-11-05T16:24:26.524Z,18.35
2022-11-05T16:27:00.797Z,18.02
2022-11-05T16:28:53.004Z,17.10
2022-11-05T16:30:59.727Z,15.57
2022-11-05T16:33:05.885Z,16.55
2022-11-05T16:35:15.965Z,17.60
2022-11-05T16:37:19.540Z,16.38
2022-11-05T16:39:21.186Z,17.80
2022-11-05T16:41:23.246Z,20.50
2022-11-05T16:43:26.127Z,18.20
2022-11-05T16:45:27.783Z,17.87
2022-11-05T16:47:31.207Z,18.27
2022-11-05T16:49:32.878Z,18.17
2022-11-05T16:51:34.511Z,17.58
2022-11-05T16:53:36.099Z,19.05
2022-11-05T16:55:39.653Z,17.45
2022-11-05T16:57:43.512Z,17.23
2022-11-05T16:59:45.103Z,17.83
2022-11-05T17:01:50.326Z,18.40
2022-11-05T17:03:54.642Z,18.38
2022-11-05T17:05:56.292Z,19.00
2022-11-05T17:07:58.564Z,20.38
2022-11-05T17:10:00.179Z,20.02
2022-11-05T17:12:02.500Z,18.85
2022-11-05T17:14:04.149Z,18.52
2022-11-05T17:16:05.905Z,19.38
2022-11-05T17:18:07.689Z,19.02
2022-11-05T17:20:14.887Z,19.88
2022-11-05T17:22:16.527Z,18.65
2022-11-05T17:24:18.167Z,19.17
2022-11-05T17:26:19.805Z,20.45
2022-11-05T17:28:21.553Z,18.20
2022-11-05T17:30:23.697Z,18.70
2022-11-05T17:32:25.421Z,17.65
2022-11-05T17:34:27.080Z,18.60
2022-11-05T17:36:28.776Z,20.52
2022-11-05T17:38:30.396Z,20.33
2022-11-05T17:40:34.050Z,24.67
2022-11-05T17:42:35.714Z,25.55
2022-11-05T17:44:37.821Z,23.20
2022-11-05T17:46:39.392Z,22.92
2022-11-05T17:48:41.506Z,23.73
2022-11-05T17:50:45.090Z,24.33
2022-11-05T17:52:46.926Z,25.52
2022-11-05T17:54:48.657Z,26.80
2022-11-05T17:56:50.229Z,26.88
2022-11-05T17:58:51.909Z,27.88
2022-11-05T18:00:53.548Z,28.35
2022-11-05T18:02:55.208Z,28.35
2022-11-05T18:04:56.998Z,28.77
2022-11-05T18:06:58.591Z,25.95
2022-11-05T18:09:00.237Z,27.40
2022-11-05T18:11:02.369Z,26.98
2022-11-05T18:13:04.022Z,35.88
2022-11-05T18:15:06.403Z,35.28
2022-11-05T18:17:08.649Z,30.40
2022-11-05T18:19:10.268Z,31.73
2022-11-05T18:21:12.195Z,29.77
2022-11-05T18:23:14.516Z,28.08
2022-11-05T18:25:17.371Z,27.23
2022-11-05T18:27:19.066Z,26.45
2022-11-05T18:29:20.895Z,26.15
2022-11-05T18:31:22.896Z,25.45
2022-11-05T18:33:24.609Z,25.25
2022-11-05T18:35:26.264Z,24.45
2022-11-05T18:37:27.905Z,28.42
2022-11-05T18:39:29.792Z,27.42
2022-11-05T18:41:31.581Z,26.00
2022-11-05T18:43:33.229Z,26.88
2022-11-05T18:45:35.069Z,27.08
2022-11-05T18:47:36.795Z,26.20
2022-11-05T18:49:39.547Z,26.95
2022-11-05T18:51:41.177Z,27.15
2022-11-05T18:53:43.340Z,26.55
2022-11-05T18:55:44.982Z,26.27
2022-11-05T18:57:46.595Z,25.08
2022-11-05T18:59:48.246Z,25.83
2022-11-05T19:01:50.104Z,25.20
2022-11-05T19:03:52.175Z,23.80
2022-11-05T19:05:53.728Z,24.58
2022-11-05T19:07:55.447Z,24.98
2022-11-05T19:09:57.054Z,24.98
2022-11-05T19:11:58.772Z,25.67
2022-11-05T19:14:00.660Z,25.50
2022-11-05T19:16:02.689Z,23.77
2022-11-05T19:18:04.318Z,25.30
2022-11-05T19:20:06.977Z,24.65
2022-11-05T19:22:08.586Z,25.02
2022-11-05T19:24:10.394Z,24.27
2022-11-05T19:26:17.458Z,29.08
2022-11-05T19:28:21.847Z,26.92
2022-11-05T19:30:23.820Z,27.42
2022-11-05T19:32:25.518Z,25.00
2022-11-05T19:34:27.322Z,24.58
2022-11-05T19:36:30.042Z,24.42
2022-11-05T19:38:31.675Z,31.42
2022-11-05T19:40:33.249Z,38.95
2022-11-05T19:42:34.925Z,27.27
2022-11-05T19:44:36.727Z,25.90
2022-11-05T19:46:38.540Z,24.52
2022-11-05T19:48:40.200Z,22.85
2022-11-05T19:50:43.160Z,22.45
2022-11-05T19:52:44.849Z,23.85
2022-11-05T19:54:46.466Z,24.02
2022-11-05T19:56:50.084Z,24.90
2022-11-05T19:58:53.222Z,24.30
2022-11-05T20:00:55.961Z,24.52
2022-11-05T20:02:57.783Z,23.85
2022-11-05T20:04:59.528Z,25.15
2022-11-05T20:07:01.129Z,25.05
2022-11-05T20:09:20.976Z,25.42
2022-11-05T20:11:23.599Z,25.67
2022-11-05T20:13:25.239Z,24.23
2022-11-05T20:15:27.039Z,23.17
2022-11-05T20:17:28.888Z,21.88
2022-11-05T20:19:30.648Z,21.08
2022-11-05T20:21:32.909Z,19.98
2022-11-05T20:23:36.064Z,20.42
2022-11-05T20:25:37.717Z,20.33
2022-11-05T20:27:40.246Z,20.70
2022-11-05T20:29:42.968Z,22.60
2022-11-05T20:31:44.548Z,20.95
2022-11-05T20:33:46.311Z,22.63
2022-11-05T20:35:48.670Z,21.13
2022-11-05T20:37:53.974Z,21.23
2022-11-05T20:39:56.019Z,20.88
2022-11-05T20:41:57.669Z,20.40
2022-11-05T20:43:59.521Z,20.98
2022-11-05T20:46:01.184Z,23.00
2022-11-05T20:48:02.786Z,22.50
2022-11-05T20:50:05.472Z,20.63
2022-11-05T20:52:07.540Z,22.52
2022-11-05T20:54:09.739Z,22.50
2022-11-05T20:56:26.038Z,23.98
2022-11-05T20:58:28.285Z,22.65
2022-11-05T21:00:29.862Z,27.63
2022-11-05T21:02:31.543Z,28.63
2022-11-05T21:04:33.201Z,28.85
2022-11-05T21:06:35.921Z,25.15
2022-11-05T21:08:37.780Z,25.70
2022-11-05T21:10:39.373Z,24.90
2022-11-05T21:12:42.839Z,24.85
2022-11-05T21:14:44.606Z,26.20
2022-11-05T21:16:46.221Z,24.77
2022-11-05T21:18:48.302Z,24.67
2022-11-05T21:20:50.272Z,24.42
2022-11-05T21:22:51.863Z,24.10
2022-11-05T21:24:53.673Z,24.13
2022-11-05T21:26:55.389Z,22.40
2022-11-05T21:28:57.006Z,31.80
2022-11-05T21:31:02.743Z,29.65
2022-11-05T21:33:05.383Z,22.77
2022-11-05T21:35:07.374Z,24.27
2022-11-05T21:37:09.020Z,21.35
2022-11-05T21:39:13.741Z,23.85
2022-11-05T21:41:15.504Z,22.60
2022-11-05T21:43:17.309Z,21.45
2022-11-05T21:45:18.884Z,20.17
2022-11-05T21:47:20.577Z,20.00
2022-11-05T21:49:22.155Z,21.60
2022-11-05T21:51:42.532Z,20.25
2022-11-05T21:54:03.278Z,20.48
2022-11-05T21:56:26.032Z,19.70
2022-11-05T21:58:46.087Z,20.98
2022-11-05T22:00:47.797Z,21.17
2022-11-05T22:02:49.734Z,23.42
2022-11-05T22:04:53.050Z,22.13
2022-11-05T22:06:54.912Z,21.52
2022-11-05T22:08:56.511Z,21.35
2022-11-05T22:10:58.146Z,21.13
2022-11-05T22:13:01.094Z,21.35
2022-11-05T22:15:03.177Z,21.93
2022-11-05T22:17:05.564Z,22.90
2022-11-05T22:19:07.354Z,21.45
2022-11-05T22:21:08.952Z,20.50
2022-11-05T22:23:11.482Z,21.55
2022-11-05T22:25:15.888Z,20.23
2022-11-05T22:27:19.260Z,21.25
2022-11-05T22:29:22.104Z,21.75
2022-11-05T22:31:23.784Z,22.03
2022-11-05T22:33:25.423Z,21.20
2022-11-05T22:35:27.119Z,21.88
2022-11-05T22:37:28.676Z,21.73
2022-11-05T22:39:30.438Z,20.58
2022-11-05T22:41:32.316Z,21.70
2022-11-05T22:43:34.007Z,21.45
2022-11-05T22:45:36.506Z,20.13
2022-11-05T22:47:38.184Z,21.50
2022-11-05T22:49:39.949Z,22.23
2022-11-05T22:51:41.599Z,19.92
2022-11-05T22:53:43.684Z,21.73
2022-11-05T22:55:45.276Z,22.33
2022-11-05T22:57:46.899Z,21.15
2022-11-05T22:59:48.544Z,20.20
2022-11-05T23:01:50.363Z,20.95
2022-11-05T23:03:53.195Z,20.65
2022-11-05T23:05:58.793Z,21.38
2022-11-05T23:08:18.898Z,22.10
2022-11-05T23:10:39.262Z,21.17
2022-11-05T23:12:43.219Z,21.35
2022-11-05T23:14:44.800Z,20.75
2022-11-05T23:17:05.245Z,21.42
2022-11-05T23:19:25.586Z,21.83
2022-11-05T23:21:46.017Z,20.25
2022-11-05T23:24:05.858Z,19.15
2022-11-05T23:26:27.468Z,19.38
2022-11-05T23:28:29.035Z,21.15
2022-11-05T23:30:30.647Z,22.20
2022-11-05T23:32:32.838Z,21.60
2022-11-05T23:34:36.127Z,21.23
2022-11-05T23:36:56.276Z,21.95
2022-11-05T23:38:58.088Z,20.40
2022-11-05T23:41:21.861Z,22.08
2022-11-05T23:43:42.097Z,23.02
2022-11-05T23:46:03.202Z,21.80
2022-11-05T23:48:34.944Z,21.95
2022-11-05T23:50:39.740Z,23.25
2022-11-05T23:52:41.835Z,23.10
2022-11-05T23:54:43.480Z,24.42
2022-11-05T23:56:45.927Z,22.27
2022-11-05T23:58:47.588Z,22.17
